Kansas City, MO

1:57 AM CDT on July 29, 2015 (GMT -0500)
APRSWXNET | | Change Station
CLOSE
Current Station
Personal Weather Station
Location: Kansas City, MO
Elevation: 1003 ft
Nearby Weather Stations

Elev 1003 ft 38.92 °N, 94.55 °W | Updated 29 minutes ago

Partly Cloudy
Partly Cloudy
80 °F
Feels Like 85 °F
N
0
Wind Variable Wind from SSW
Gusts 1.0 mph

Today
High -- | Low -- °F
--% Chance of Precip.
Yesterday
High -- | Low -- °F
Precip. -- in
6:16 AM 8:32 PM
Waxing Gibbous, 94% visible
Pressure 29.94 in
Visibility 10.0 miles
Clouds Mostly Cloudy 6500 ft
Overcast 8000 ft
Heat Index 85 °F
Dew Point 74 °F
Humidity 82%
Rainfall in
Snow Depth Not available.
UV 0 out of 12
Pollen 5.60 out of 12
Air Quality Not available.
Flu Activity Not available.
METAR KLXT 290653Z AUTO 22005KT 10SM BKN065 OVC080 28/22 A2998 RMK AO2 LTG DSNT N AND NE SLP139 T02780222

More Conditions Fewer Conditions

Pressure 29.94 in
Visibility 10.0 miles
Clouds Mostly Cloudy 6500 ft
Overcast 8000 ft
Heat Index 85 °F
Dew Point 74 °F
Humidity 82%
Rainfall in
Snow Depth Not available.
UV 0 out of 12
Pollen 5.60 out of 12
Air Quality Not available.
Flu Activity Not available.
METAR KLXT 290653Z AUTO 22005KT 10SM BKN065 OVC080 28/22 A2998 RMK AO2 LTG DSNT N AND NE SLP139 T02780222

More Conditions Fewer Conditions

10-Day Weather Forecast

×

Almanac

Astronomy

Jul. 29, 2015 Rise Set
Actual Time
Civil Twilight
Nautical Twilight
Astronomical Twilight
Moon
Length of Visible Light
Length of Day
Tomorrow will be .
, % of the Moon is Illuminated

Today's Extremes

State Highs State Lows

Community

WunderPhotos

Upload Photos

1,842,061 photos uploaded!

WunderBlogs® & News

Nearby

Air Quality

  Air Quality AQ Index Pollutant
Not available.

Snow Depth

Station Depth Elevation

Earthquake Activity

City Distance Mag. Time & Date
Minimum magnitude displayed is 2.5.

Coastal Water Temperatures

Place Temperature

Stations

Nearby Weather Stations

Station Location Temp. Windchill Dew Point Humidity Wind Precip. Elev Updated Type